Time,TemperatureF,DewpointF,PressureIn,WindDirection,WindDirectionDegrees,WindSpeedMPH,WindSpeedGustMPH,Humidity,HourlyPrecipIn,Conditions,Clouds,dailyrainin,SoftwareType,DateUTC
2013-04-20 00:01:00,37.2,28.7,30.06,West,267,2.4,4.6,71,0.00,SCT,,0.00,WeatherDisplay:10.37,2013-04-20 04:01:00,
2013-04-20 00:06:00,37.2,28.7,30.05,WSW,245,3.4,3.5,71,0.00,SCT,,0.00,WeatherDisplay:10.37,2013-04-20 04:06:00,
2013-04-20 00:11:00,37.0,28.5,30.06,WSW,245,1.8,3.5,71,0.00,BKN,,0.00,WeatherDisplay:10.37,2013-04-20 04:11:00,
2013-04-20 00:16:00,37.0,28.5,30.06,SW,222,2.5,2.5,71,0.00,BKN,,0.00,WeatherDisplay:10.37,2013-04-20 04:16:00,
2013-04-20 00:21:00,37.0,28.5,30.06,SW,222,1.8,2.3,71,0.00,BKN,,0.00,WeatherDisplay:10.37,2013-04-20 04:21:00,
2013-04-20 00:26:00,36.7,28.2,30.06,SW,222,0.6,3.5,71,0.00,BKN,,0.00,WeatherDisplay:10.37,2013-04-20 04:26:00,
2013-04-20 00:31:00,36.7,28.5,30.06,SSW,199,6.2,8.1,72,0.00,BKN,,0.00,WeatherDisplay:10.37,2013-04-20 04:31:00,
2013-04-20 00:36:00,36.7,28.5,30.06,SW,222,3.5,3.5,72,0.00,BKN,,0.00,WeatherDisplay:10.37,2013-04-20 04:36:00,
2013-04-20 00:41:00,36.5,28.3,30.06,SW,222,2.0,2.3,72,0.00,BKN,,0.00,WeatherDisplay:10.37,2013-04-20 04:41:00,
2013-04-20 00:46:00,36.5,28.3,30.06,SW,222,2.8,5.4,72,0.00,BKN,,0.00,WeatherDisplay:10.37,2013-04-20 04:46:00,
2013-04-20 00:51:00,36.5,28.3,30.07,SW,222,1.1,1.1,72,0.00,BKN,,0.00,WeatherDisplay:10.37,2013-04-20 04:51:00,
2013-04-20 00:56:00,36.5,28.3,30.07,SW,222,1.6,2.2,72,0.00,BKN,,0.00,WeatherDisplay:10.37,2013-04-20 04:56:00,
2013-04-20 01:01:00,36.5,28.3,30.07,SW,222,2.7,2.7,72,0.00,BKN,,0.00,WeatherDisplay:10.37,2013-04-20 05:01:00,
2013-04-20 01:06:00,36.3,28.2,30.07,SW,222,0.7,2.3,72,0.00,BKN,,0.00,WeatherDisplay:10.37,2013-04-20 05:06:00,
2013-04-20 01:11:00,36.1,28.0,30.07,West,267,3.4,3.5,72,0.00,BKN,,0.00,WeatherDisplay:10.37,2013-04-20 05:11:00,
2013-04-20 01:16:00,36.1,28.0,30.07,South,177,5.1,5.8,72,0.00,BKN,,0.00,WeatherDisplay:10.37,2013-04-20 05:16:00,
2013-04-20 01:21:00,36.1,28.0,30.07,West,267,2.1,2.1,72,0.00,BKN,,0.00,WeatherDisplay:10.37,2013-04-20 05:21:00,
2013-04-20 01:26:00,36.1,28.0,30.07,SW,222,1.6,4.6,72,0.00,BKN,,0.00,WeatherDisplay:10.37,2013-04-20 05:26:00,
2013-04-20 01:31:00,36.0,28.1,30.07,WSW,245,3.6,4.7,73,0.00,BKN,,0.00,WeatherDisplay:10.37,2013-04-20 05:31:00,
2013-04-20 01:36:00,35.8,28.0,30.07,SW,222,3.7,4.6,73,0.00,BKN,,0.00,WeatherDisplay:10.37,2013-04-20 05:36:00,
2013-04-20 01:41:00,35.8,28.0,30.07,SW,222,3.7,3.7,73,0.00,BKN,,0.00,WeatherDisplay:10.37,2013-04-20 05:41:00,
2013-04-20 01:46:00,35.8,28.0,30.07,WSW,245,3.9,4.5,73,0.00,BKN,,0.00,WeatherDisplay:10.37,2013-04-20 05:46:00,
2013-04-20 01:51:00,35.4,27.6,30.07,WSW,245,1.6,2.3,73,0.00,BKN,,0.00,WeatherDisplay:10.37,2013-04-20 05:51:00,
2013-04-20 01:56:00,35.4,27.6,30.07,WSW,245,1.6,2.3,73,0.00,BKN,,0.00,WeatherDisplay:10.37,2013-04-20 05:56:00,
2013-04-20 02:01:00,35.4,27.6,30.07,WSW,245,1.6,2.3,73,0.00,BKN,,0.00,WeatherDisplay:10.37,2013-04-20 06:01:00,
2013-04-20 02:06:00,35.4,28.0,30.07,WSW,245,1.6,2.3,74,0.00,BKN,,0.00,WeatherDisplay:10.37,2013-04-20 06:06:00,
2013-04-20 02:11:00,35.4,28.0,30.07,West,267,2.0,2.3,74,0.00,FEW,,0.00,WeatherDisplay:10.37,2013-04-20 06:11:00,
2013-04-20 02:16:00,35.4,28.0,30.07,West,267,2.0,0.0,74,0.00,FEW,,0.00,WeatherDisplay:10.37,2013-04-20 06:16:00,
2013-04-20 02:21:00,35.4,28.0,30.07,WSW,245,0.2,3.5,74,0.00,FEW,,0.00,WeatherDisplay:10.37,2013-04-20 06:21:00,
2013-04-20 02:26:00,35.4,28.0,30.07,WSW,245,0.2,3.5,74,0.00,FEW,,0.00,WeatherDisplay:10.37,2013-04-20 06:26:00,
2013-04-20 02:31:00,35.4,28.0,30.07,WSW,245,0.2,3.5,74,0.00,FEW,,0.00,WeatherDisplay:10.37,2013-04-20 06:31:00,
2013-04-20 02:36:00,35.2,27.8,30.07,WSW,245,3.4,3.5,74,0.00,FEW,,0.00,WeatherDisplay:10.37,2013-04-20 06:36:00,
2013-04-20 02:41:00,35.2,27.4,30.07,West,267,3.1,3.5,73,0.00,FEW,,0.00,WeatherDisplay:10.37,2013-04-20 06:41:00,
2013-04-20 02:46:00,35.2,27.4,30.07,West,267,3.1,3.5,73,0.00,FEW,,0.00,WeatherDisplay:10.37,2013-04-20 06:46:00,
2013-04-20 02:51:00,34.9,27.4,30.07,West,267,3.6,3.6,74,0.00,FEW,,0.00,WeatherDisplay:10.37,2013-04-20 06:51:00,
2013-04-20 02:56:00,34.9,27.4,30.07,WSW,245,1.8,3.5,74,0.00,FEW,,0.00,WeatherDisplay:10.37,2013-04-20 06:56:00,
2013-04-20 03:01:00,34.9,27.4,30.07,WSW,245,1.3,1.3,74,0.00,FEW,,0.00,WeatherDisplay:10.37,2013-04-20 07:01:00,
2013-04-20 03:06:00,34.9,27.4,30.07,SW,222,1.1,1.1,74,0.00,FEW,,0.00,WeatherDisplay:10.37,2013-04-20 07:06:00,
2013-04-20 03:11:00,34.9,27.1,30.07,SW,222,1.3,1.3,73,0.00,CLR,,0.00,WeatherDisplay:10.37,2013-04-20 07:11:00,
2013-04-20 03:16:00,34.9,27.1,30.07,SW,222,1.3,1.3,73,0.00,CLR,,0.00,WeatherDisplay:10.37,2013-04-20 07:16:00,
2013-04-20 03:21:00,34.3,26.6,30.08,SW,222,1.6,1.6,73,0.00,CLR,,0.00,WeatherDisplay:10.37,2013-04-20 07:21:00,
2013-04-20 03:26:00,34.3,26.9,30.08,SW,222,0.0,2.3,74,0.00,CLR,,0.00,WeatherDisplay:10.37,2013-04-20 07:26:00,
2013-04-20 03:31:00,34.3,26.9,30.08,WSW,245,0.5,2.3,74,0.00,CLR,,0.00,WeatherDisplay:10.37,2013-04-20 07:31:00,
2013-04-20 03:36:00,34.2,26.7,30.08,SW,222,2.5,2.5,74,0.00,CLR,,0.00,WeatherDisplay:10.37,2013-04-20 07:36:00,
2013-04-20 03:41:00,34.2,26.7,30.08,SSW,199,2.4,3.5,74,0.00,CLR,,0.00,WeatherDisplay:10.37,2013-04-20 07:41:00,
2013-04-20 03:46:00,34.2,27.1,30.08,WSW,245,3.4,3.5,75,0.00,CLR,,0.00,WeatherDisplay:10.37,2013-04-20 07:46:00,
2013-04-20 03:51:00,34.2,27.1,30.08,West,267,3.3,3.5,75,0.00,CLR,,0.00,WeatherDisplay:10.37,2013-04-20 07:51:00,
2013-04-20 03:56:00,34.2,27.1,30.08,WSW,245,1.8,2.3,75,0.00,CLR,,0.00,WeatherDisplay:10.37,2013-04-20 07:56:00,
2013-04-20 04:01:00,34.2,27.1,30.08,WSW,245,3.9,3.9,75,0.00,CLR,,0.00,WeatherDisplay:10.37,2013-04-20 08:01:00,
2013-04-20 04:06:00,34.2,27.1,30.09,WSW,245,1.3,5.8,75,0.00,CLR,,0.00,WeatherDisplay:10.37,2013-04-20 08:06:00,
2013-04-20 04:11:00,34.2,27.1,30.08,WSW,245,3.6,3.6,75,0.00,CLR,,0.00,WeatherDisplay:10.37,2013-04-20 08:11:00,
2013-04-20 04:16:00,34.2,27.1,30.09,WSW,245,2.4,2.4,75,0.00,CLR,,0.00,WeatherDisplay:10.37,2013-04-20 08:16:00,
2013-04-20 04:21:00,33.8,26.7,30.09,WSW,245,5.3,5.8,75,0.00,CLR,,0.00,WeatherDisplay:10.37,2013-04-20 08:21:00,
2013-04-20 04:26:00,33.8,26.7,30.09,West,267,3.1,3.5,75,0.00,CLR,,0.00,WeatherDisplay:10.37,2013-04-20 08:26:00,
2013-04-20 04:31:00,33.8,26.7,30.09,WSW,245,2.2,2.3,75,0.00,CLR,,0.00,WeatherDisplay:10.37,2013-04-20 08:31:00,
2013-04-20 04:36:00,33.6,26.5,30.09,SW,222,0.0,2.3,75,0.00,CLR,,0.00,WeatherDisplay:10.37,2013-04-20 08:36:00,
2013-04-20 04:41:00,33.6,26.9,30.10,WSW,245,2.5,3.5,76,0.00,CLR,,0.00,WeatherDisplay:10.37,2013-04-20 08:41:00,
2013-04-20 04:46:00,33.6,26.9,30.10,SW,222,3.0,3.5,76,0.00,CLR,,0.00,WeatherDisplay:10.37,2013-04-20 08:46:00,
2013-04-20 04:51:00,33.4,26.7,30.09,SW,222,3.2,6.9,76,0.00,CLR,,0.00,WeatherDisplay:10.37,2013-04-20 08:51:00,
2013-04-20 04:56:00,33.4,26.7,30.09,WSW,245,1.6,1.6,76,0.00,CLR,,0.00,WeatherDisplay:10.37,2013-04-20 08:56:00,
2013-04-20 05:01:00,33.3,26.5,30.09,West,267,1.1,2.3,76,0.00,CLR,,0.00,WeatherDisplay:10.37,2013-04-20 09:01:00,
2013-04-20 05:06:00,33.3,26.5,30.10,SW,222,2.7,2.7,76,0.00,CLR,,0.00,WeatherDisplay:10.37,2013-04-20 09:06:00,
2013-04-20 05:11:00,32.9,26.2,30.10,WSW,245,2.0,2.3,76,0.00,CLR,,0.00,WeatherDisplay:10.37,2013-04-20 09:11:00,
2013-04-20 05:16:00,32.9,26.2,30.10,WSW,245,2.6,3.5,76,0.00,CLR,,0.00,WeatherDisplay:10.37,2013-04-20 09:16:00,
2013-04-20 05:21:00,32.9,26.2,30.10,WSW,245,0.7,2.3,76,0.00,CLR,,0.00,WeatherDisplay:10.37,2013-04-20 09:21:00,
2013-04-20 05:26:00,32.7,26.0,30.10,WSW,245,0.0,0.0,76,0.00,CLR,,0.00,WeatherDisplay:10.37,2013-04-20 09:26:00,
2013-04-20 05:31:00,32.7,26.0,30.11,WSW,245,2.1,2.3,76,0.00,CLR,,0.00,WeatherDisplay:10.37,2013-04-20 09:31:00,
2013-04-20 05:36:00,32.7,26.0,30.11,WSW,245,2.3,3.5,76,0.00,CLR,,0.00,WeatherDisplay:10.37,2013-04-20 09:36:00,
2013-04-20 05:41:00,32.5,25.8,30.11,WSW,245,2.2,2.3,76,0.00,CLR,,0.00,WeatherDisplay:10.37,2013-04-20 09:41:00,
2013-04-20 05:46:00,32.5,25.8,30.11,West,267,3.7,3.7,76,0.00,CLR,,0.00,WeatherDisplay:10.37,2013-04-20 09:46:00,
2013-04-20 05:51:00,32.4,25.6,30.11,WSW,245,1.8,3.5,76,0.00,CLR,,0.00,WeatherDisplay:10.37,2013-04-20 09:51:00,
2013-04-20 05:56:00,32.4,26.0,30.11,WSW,245,3.1,3.5,77,0.00,CLR,,0.00,WeatherDisplay:10.37,2013-04-20 09:56:00,
2013-04-20 06:01:00,32.4,26.0,30.11,SW,222,1.4,2.3,77,0.00,CLR,,0.00,WeatherDisplay:10.37,2013-04-20 10:01:00,
2013-04-20 06:06:00,32.2,25.8,30.12,SW,222,3.3,3.5,77,0.00,CLR,,0.00,WeatherDisplay:10.37,2013-04-20 10:06:00,
2013-04-20 06:11:00,32.2,25.8,30.11,SW,222,2.7,2.7,77,0.00,CLR,,0.00,WeatherDisplay:10.37,2013-04-20 10:11:00,
2013-04-20 06:16:00,32.2,25.8,30.11,West,267,2.0,2.3,77,0.00,CLR,,0.00,WeatherDisplay:10.37,2013-04-20 10:16:00,
2013-04-20 06:21:00,32.4,26.0,30.11,West,267,0.9,0.0,77,0.00,CLR,,0.00,WeatherDisplay:10.37,2013-04-20 10:21:00,
2013-04-20 06:26:00,32.2,25.8,30.12,SSW,199,2.5,2.5,77,0.00,CLR,,0.00,WeatherDisplay:10.37,2013-04-20 10:26:00,
2013-04-20 06:31:00,32.2,25.8,30.12,SW,222,1.6,1.6,77,0.00,CLR,,0.00,WeatherDisplay:10.37,2013-04-20 10:31:00,
2013-04-20 06:36:00,32.0,25.6,30.12,South,177,0.0,0.0,77,0.00,CLR,,0.00,WeatherDisplay:10.37,2013-04-20 10:36:00,
2013-04-20 06:41:00,31.8,25.4,30.12,South,177,0.0,1.1,77,0.00,CLR,,0.00,WeatherDisplay:10.37,2013-04-20 10:41:00,
2013-04-20 06:46:00,31.6,25.3,30.12,SSW,199,1.1,1.1,77,0.00,CLR,,0.00,WeatherDisplay:10.37,2013-04-20 10:46:00,
2013-04-20 06:51:00,31.6,25.3,30.12,SSW,199,1.3,1.3,77,0.00,CLR,,0.00,WeatherDisplay:10.37,2013-04-20 10:51:00,
2013-04-20 06:56:00,31.3,24.9,30.12,SW,222,0.0,0.0,77,0.00,CLR,,0.00,WeatherDisplay:10.37,2013-04-20 10:56:00,
2013-04-20 07:01:00,30.9,24.6,30.12,SSW,199,0.0,0.0,77,0.00,CLR,,0.00,WeatherDisplay:10.37,2013-04-20 11:01:00,
2013-04-20 07:06:00,30.9,24.6,30.14,SW,222,0.0,1.1,77,0.00,CLR,,0.00,WeatherDisplay:10.37,2013-04-20 11:06:00,
2013-04-20 07:11:00,30.7,24.4,30.14,SSW,199,2.4,2.4,77,0.00,CLR,,0.00,WeatherDisplay:10.37,2013-04-20 11:11:00,
2013-04-20 07:16:00,30.7,24.7,30.14,SSW,199,2.0,2.3,78,0.00,CLR,,0.00,WeatherDisplay:10.37,2013-04-20 11:16:00,
2013-04-20 07:21:00,30.7,24.7,30.14,SSE,155,0.0,0.0,78,0.00,CLR,,0.00,WeatherDisplay:10.37,2013-04-20 11:21:00,
2013-04-20 07:26:00,30.7,24.7,30.14,SSW,199,0.0,0.0,78,0.00,CLR,,0.00,WeatherDisplay:10.37,2013-04-20 11:26:00,
2013-04-20 07:31:00,30.7,24.7,30.15,South,177,0.0,0.0,78,0.00,CLR,,0.00,WeatherDisplay:10.37,2013-04-20 11:31:00,
2013-04-20 07:36:00,30.7,24.7,30.15,SSW,199,0.0,0.0,78,0.00,CLR,,0.00,WeatherDisplay:10.37,2013-04-20 11:36:00,
2013-04-20 07:41:00,30.9,24.9,30.16,SW,222,1.0,1.1,78,0.00,CLR,,0.00,WeatherDisplay:10.37,2013-04-20 11:41:00,
2013-04-20 07:46:00,30.9,25.2,30.16,West,267,0.0,0.0,79,0.00,CLR,,0.00,WeatherDisplay:10.37,2013-04-20 11:46:00,
2013-04-20 07:51:00,31.3,25.5,30.16,WSW,245,0.0,0.0,79,0.00,CLR,,0.00,WeatherDisplay:10.37,2013-04-20 11:51:00,
2013-04-20 07:56:00,31.6,25.9,30.17,WSW,245,0.1,0.0,79,0.00,CLR,,0.00,WeatherDisplay:10.37,2013-04-20 11:56:00,
2013-04-20 08:01:00,32.2,26.4,30.17,WSW,245,0.0,0.0,79,0.00,CLR,,0.00,WeatherDisplay:10.37,2013-04-20 12:01:00,
2013-04-20 08:06:00,32.4,26.9,30.17,WSW,245,0.0,0.0,80,0.00,CLR,,0.00,WeatherDisplay:10.37,2013-04-20 12:06:00,
2013-04-20 08:11:00,33.1,27.9,30.17,SW,222,0.0,1.1,81,0.00,CLR,,0.00,WeatherDisplay:10.37,2013-04-20 12:11:00,
2013-04-20 08:16:00,33.1,27.9,30.18,WSW,245,0.0,0.0,81,0.00,CLR,,0.00,WeatherDisplay:10.37,2013-04-20 12:16:00,
2013-04-20 08:22:00,35.2,30.0,30.18,West,267,0.0,0.0,81,0.00,CLR,,0.00,WeatherDisplay:10.37,2013-04-20 12:22:00,
2013-04-20 08:27:00,36.1,30.9,30.18,West,267,1.6,1.6,81,0.00,CLR,,0.00,WeatherDisplay:10.37,2013-04-20 12:27:00,
2013-04-20 08:32:00,37.0,31.4,30.18,SW,222,1.3,4.6,80,0.00,CLR,,0.00,WeatherDisplay:10.37,2013-04-20 12:32:00,
2013-04-20 08:37:00,38.1,32.5,30.18,West,267,3.3,3.5,80,0.00,CLR,,0.00,WeatherDisplay:10.37,2013-04-20 12:37:00,
2013-04-20 08:42:00,39.0,33.1,30.19,WSW,245,6.2,6.9,79,0.00,CLR,,0.00,WeatherDisplay:10.37,2013-04-20 12:42:00,
2013-04-20 08:47:00,39.4,33.1,30.18,West,267,3.7,6.9,78,0.00,CLR,,0.00,WeatherDisplay:10.37,2013-04-20 12:47:00,
2013-04-20 08:52:00,40.3,33.3,30.19,WSW,245,2.5,2.5,76,0.00,CLR,,0.00,WeatherDisplay:10.37,2013-04-20 12:52:00,
2013-04-20 08:57:00,41.5,34.2,30.19,West,267,1.6,1.6,75,0.00,CLR,,0.00,WeatherDisplay:10.37,2013-04-20 12:57:00,
2013-04-20 09:02:00,42.1,34.0,30.19,West,267,7.7,8.1,73,0.00,CLR,,0.00,WeatherDisplay:10.37,2013-04-20 13:02:00,
2013-04-20 09:07:00,42.6,34.2,30.19,North,357,1.8,3.5,72,0.00,CLR,,0.00,WeatherDisplay:10.37,2013-04-20 13:07:00,
2013-04-20 09:12:00,43.2,34.7,30.19,NW,312,1.9,9.2,72,0.00,CLR,,0.00,WeatherDisplay:10.37,2013-04-20 13:12:00,
2013-04-20 09:17:00,43.5,34.0,30.19,West,267,5.3,6.9,69,0.00,CLR,,0.00,WeatherDisplay:10.37,2013-04-20 13:17:00,
2013-04-20 09:22:00,44.1,34.2,30.19,NNW,335,8.3,8.3,68,0.00,CLR,,0.00,WeatherDisplay:10.37,2013-04-20 13:22:00,
2013-04-20 09:27:00,44.4,34.5,30.19,NW,312,6.5,6.9,68,0.00,CLR,,0.00,WeatherDisplay:10.37,2013-04-20 13:27:00,
2013-04-20 09:32:00,44.6,34.3,30.20,NW,312,2.5,2.5,67,0.00,CLR,,0.00,WeatherDisplay:10.37,2013-04-20 13:32:00,
2013-04-20 09:37:00,44.6,34.3,30.20,NW,312,4.2,4.6,67,0.00,CLR,,0.00,WeatherDisplay:10.37,2013-04-20 13:37:00,
2013-04-20 09:42:00,45.3,34.6,30.20,NW,312,4.4,4.4,66,0.00,CLR,,0.00,WeatherDisplay:10.37,2013-04-20 13:42:00,
2013-04-20 09:47:00,45.7,34.2,30.20,NW,312,4.9,6.9,64,0.00,CLR,,0.00,WeatherDisplay:10.37,2013-04-20 13:47:00,
2013-04-20 09:52:00,45.7,33.8,30.20,West,267,5.8,5.8,63,0.00,CLR,,0.00,WeatherDisplay:10.37,2013-04-20 13:52:00,
2013-04-20 09:57:00,46.0,33.7,30.21,West,267,3.6,3.6,62,0.00,CLR,,0.00,WeatherDisplay:10.37,2013-04-20 13:57:00,
2013-04-20 10:02:00,46.2,34.3,30.21,WNW,289,1.3,1.3,63,0.00,CLR,,0.00,WeatherDisplay:10.37,2013-04-20 14:02:00,
2013-04-20 10:07:00,46.2,34.3,30.20,NW,312,11.4,11.5,63,0.00,CLR,,0.00,WeatherDisplay:10.37,2013-04-20 14:07:00,
2013-04-20 10:12:00,47.5,34.7,30.21,NNW,335,6.3,6.3,61,0.00,CLR,,0.00,WeatherDisplay:10.37,2013-04-20 14:12:00,
2013-04-20 10:17:00,47.5,35.1,30.20,NNW,335,0.1,3.5,62,0.00,CLR,,0.00,WeatherDisplay:10.37,2013-04-20 14:17:00,
2013-04-20 10:22:00,48.0,34.8,30.21,NW,312,8.5,8.5,60,0.00,CLR,,0.00,WeatherDisplay:10.37,2013-04-20 14:22:00,
2013-04-20 10:27:00,48.2,34.5,30.21,West,267,3.6,3.6,59,0.00,CLR,,0.00,WeatherDisplay:10.37,2013-04-20 14:27:00,
2013-04-20 10:32:00,48.6,34.9,30.21,WNW,289,5.9,5.9,59,0.00,CLR,,0.00,WeatherDisplay:10.37,2013-04-20 14:32:00,
2013-04-20 10:37:00,48.7,34.6,30.21,West,267,5.8,5.8,58,0.00,CLR,,0.00,WeatherDisplay:10.37,2013-04-20 14:37:00,
2013-04-20 10:42:00,49.1,33.6,30.22,WNW,289,1.3,10.3,55,0.00,CLR,,0.00,WeatherDisplay:10.37,2013-04-20 14:42:00,
2013-04-20 10:47:00,49.3,33.8,30.22,WSW,245,2.9,3.5,55,0.00,CLR,,0.00,WeatherDisplay:10.37,2013-04-20 14:47:00,
2013-04-20 10:52:00,49.3,34.2,30.22,NNW,335,2.4,4.6,56,0.00,CLR,,0.00,WeatherDisplay:10.37,2013-04-20 14:52:00,
2013-04-20 10:57:00,49.3,34.2,30.23,WNW,289,5.8,6.9,56,0.00,CLR,,0.00,WeatherDisplay:10.37,2013-04-20 14:57:00,
2013-04-20 11:02:00,50.4,33.4,30.23,NW,312,7.5,9.2,52,0.00,CLR,,0.00,WeatherDisplay:10.37,2013-04-20 15:02:00,
2013-04-20 11:07:00,49.1,32.2,30.23,West,267,5.0,9.2,52,0.00,CLR,,0.00,WeatherDisplay:10.37,2013-04-20 15:07:00,
2013-04-20 11:12:00,50.2,32.7,30.24,NW,312,4.6,5.8,51,0.00,CLR,,0.00,WeatherDisplay:10.37,2013-04-20 15:12:00,
2013-04-20 11:17:00,49.8,32.4,30.24,NNW,335,10.5,10.5,51,0.00,CLR,,0.00,WeatherDisplay:10.37,2013-04-20 15:17:00,
2013-04-20 11:22:00,50.5,33.1,30.24,West,267,4.5,4.6,51,0.00,CLR,,0.00,WeatherDisplay:10.37,2013-04-20 15:22:00,
2013-04-20 11:27:00,51.1,34.1,30.24,NW,312,2.1,9.2,52,0.00,CLR,,0.00,WeatherDisplay:10.37,2013-04-20 15:27:00,
2013-04-20 11:32:00,51.1,33.1,30.24,West,267,2.7,11.5,50,0.00,CLR,,0.00,WeatherDisplay:10.37,2013-04-20 15:32:00,
2013-04-20 11:37:00,52.3,34.7,30.24,NW,312,5.9,12.5,51,0.00,CLR,,0.00,WeatherDisplay:10.37,2013-04-20 15:37:00,
2013-04-20 11:42:00,51.4,32.4,30.24,NNW,335,7.6,8.1,48,0.00,CLR,,0.00,WeatherDisplay:10.37,2013-04-20 15:42:00,
2013-04-20 11:47:00,51.1,32.6,30.24,SE,132,3.5,3.6,49,0.00,CLR,,0.00,WeatherDisplay:10.37,2013-04-20 15:47:00,
2013-04-20 11:52:00,50.9,31.4,30.24,WNW,289,10.3,10.4,47,0.00,CLR,,0.00,WeatherDisplay:10.37,2013-04-20 15:52:00,
2013-04-20 11:57:00,51.4,32.9,30.24,NW,312,8.5,8.5,49,0.00,CLR,,0.00,WeatherDisplay:10.37,2013-04-20 15:57:00,
2013-04-20 12:02:00,51.6,32.0,30.24,West,267,9.0,9.2,47,0.00,CLR,,0.00,WeatherDisplay:10.37,2013-04-20 16:02:00,
2013-04-20 12:07:00,52.2,32.0,30.24,NNW,335,5.1,5.1,46,0.00,CLR,,0.00,WeatherDisplay:10.37,2013-04-20 16:07:00,
2013-04-20 12:12:00,52.5,31.8,30.24,North,357,8.3,10.7,45,0.00,CLR,,0.00,WeatherDisplay:10.37,2013-04-20 16:12:00,
2013-04-20 12:17:00,52.5,32.3,30.24,SSW,199,4.0,6.9,46,0.00,CLR,,0.00,WeatherDisplay:10.37,2013-04-20 16:17:00,
2013-04-20 12:22:00,53.6,34.4,30.24,WSW,245,7.4,7.4,48,0.00,CLR,,0.00,WeatherDisplay:10.37,2013-04-20 16:22:00,
2013-04-20 12:27:00,54.0,33.6,30.24,WSW,245,5.1,7.2,46,0.00,CLR,,0.00,WeatherDisplay:10.37,2013-04-20 16:27:00,
2013-04-20 12:32:00,54.0,33.1,30.24,WNW,289,8.8,9.2,45,0.00,CLR,,0.00,WeatherDisplay:10.37,2013-04-20 16:32:00,
2013-04-20 12:37:00,53.4,32.0,30.24,North,357,6.9,6.9,44,0.00,CLR,,0.00,WeatherDisplay:10.37,2013-04-20 16:37:00,
2013-04-20 12:42:00,53.4,32.0,30.24,West,267,4.0,9.2,44,0.00,CLR,,0.00,WeatherDisplay:10.37,2013-04-20 16:42:00,
2013-04-20 12:47:00,52.7,31.9,30.24,WSW,245,5.1,5.1,45,0.00,CLR,,0.00,WeatherDisplay:10.37,2013-04-20 16:47:00,
2013-04-20 12:52:00,53.1,31.7,30.24,West,267,15.2,15.2,44,0.00,CLR,,0.00,WeatherDisplay:10.37,2013-04-20 16:52:00,
2013-04-20 12:57:00,53.4,32.6,30.24,NW,312,4.0,17.2,45,0.00,CLR,,0.00,WeatherDisplay:10.37,2013-04-20 16:57:00,
2013-04-20 13:02:00,53.4,32.6,30.24,WSW,245,4.7,6.9,45,0.00,CLR,,0.00,WeatherDisplay:10.37,2013-04-20 17:02:00,
2013-04-20 13:07:00,54.5,35.2,30.24,NNE,19,1.3,0.0,48,0.00,CLR,,0.00,WeatherDisplay:10.37,2013-04-20 17:07:00,
2013-04-20 13:12:00,54.5,35.2,30.24,NW,312,0.8,2.3,48,0.00,CLR,,0.00,WeatherDisplay:10.37,2013-04-20 17:12:00,
2013-04-20 13:17:00,54.5,33.0,30.24,West,267,2.0,8.1,44,0.00,CLR,,0.00,WeatherDisplay:10.37,2013-04-20 17:17:00,
2013-04-20 13:22:00,54.5,33.0,30.24,SSW,199,5.8,5.8,44,0.00,CLR,,0.00,WeatherDisplay:10.37,2013-04-20 17:22:00,
2013-04-20 13:27:00,54.5,33.0,30.24,SW,222,6.5,6.9,44,0.00,CLR,,0.00,WeatherDisplay:10.37,2013-04-20 17:27:00,
2013-04-20 13:32:00,56.7,35.5,30.24,West,267,5.9,6.0,45,0.00,CLR,,0.00,WeatherDisplay:10.37,2013-04-20 17:32:00,
2013-04-20 13:37:00,56.3,34.1,30.24,NW,312,4.7,14.1,43,0.00,CLR,,0.00,WeatherDisplay:10.37,2013-04-20 17:37:00,
2013-04-20 13:42:00,55.8,32.4,30.24,West,267,8.0,8.1,41,0.00,CLR,,0.00,WeatherDisplay:10.37,2013-04-20 17:42:00,
2013-04-20 13:47:00,54.7,32.0,30.23,West,267,5.1,11.5,42,0.00,CLR,,0.00,WeatherDisplay:10.37,2013-04-20 17:47:00,
2013-04-20 13:52:00,55.2,33.7,30.24,West,267,5.7,5.8,44,0.00,CLR,,0.00,WeatherDisplay:10.37,2013-04-20 17:52:00,
2013-04-20 13:57:00,55.9,33.7,30.24,WNW,289,8.2,10.4,43,0.00,CLR,,0.00,WeatherDisplay:10.37,2013-04-20 17:57:00,
2013-04-20 14:02:00,56.1,33.3,30.23,WNW,289,7.4,7.4,42,0.00,CLR,,0.00,WeatherDisplay:10.37,2013-04-20 18:02:00,
2013-04-20 14:07:00,55.2,32.5,30.24,South,177,9.8,10.4,42,0.00,CLR,,0.00,WeatherDisplay:10.37,2013-04-20 18:07:00,
2013-04-20 14:12:00,55.8,35.3,30.24,East,87,0.8,2.3,46,0.00,CLR,,0.00,WeatherDisplay:10.37,2013-04-20 18:12:00,
2013-04-20 14:17:00,57.0,34.1,30.23,NW,312,4.2,4.6,42,0.00,CLR,,0.00,WeatherDisplay:10.37,2013-04-20 18:17:00,
2013-04-20 14:22:00,56.8,33.4,30.24,NW,312,6.9,6.9,41,0.00,CLR,,0.00,WeatherDisplay:10.37,2013-04-20 18:22:00,
2013-04-20 14:27:00,56.1,32.7,30.24,NNW,335,6.5,7.4,41,0.00,CLR,,0.00,WeatherDisplay:10.37,2013-04-20 18:27:00,
2013-04-20 14:32:00,55.9,31.9,30.24,West,267,5.8,5.8,40,0.00,CLR,,0.00,WeatherDisplay:10.37,2013-04-20 18:32:00,
2013-04-20 14:37:00,56.5,31.8,30.24,NW,312,13.6,13.8,39,0.00,CLR,,0.00,WeatherDisplay:10.37,2013-04-20 18:37:00,
2013-04-20 14:42:00,56.5,31.8,30.24,NW,312,0.9,1.1,39,0.00,CLR,,0.00,WeatherDisplay:10.37,2013-04-20 18:42:00,
2013-04-20 14:47:00,55.9,30.7,30.24,NNW,335,8.5,12.7,38,0.00,CLR,,0.00,WeatherDisplay:10.37,2013-04-20 18:47:00,
2013-04-20 14:52:00,55.9,31.3,30.24,NW,312,2.0,4.0,39,0.00,CLR,,0.00,WeatherDisplay:10.37,2013-04-20 18:52:00,
2013-04-20 14:57:00,55.9,31.9,30.24,North,357,2.2,6.9,40,0.00,CLR,,0.00,WeatherDisplay:10.37,2013-04-20 18:57:00,
2013-04-20 15:02:00,55.9,31.9,30.24,West,267,2.9,3.5,40,0.00,CLR,,0.00,WeatherDisplay:10.37,2013-04-20 19:02:00,
2013-04-20 15:07:00,56.1,32.1,30.24,West,267,6.3,6.3,40,0.00,CLR,,0.00,WeatherDisplay:10.37,2013-04-20 19:07:00,
2013-04-20 15:12:00,56.5,32.4,30.24,WNW,289,9.6,10.4,40,0.00,SCT,,0.00,WeatherDisplay:10.37,2013-04-20 19:12:00,
2013-04-20 15:17:00,56.5,31.8,30.24,West,267,10.3,10.4,39,0.00,SCT,,0.00,WeatherDisplay:10.37,2013-04-20 19:17:00,
2013-04-20 15:22:00,56.8,33.4,30.23,WNW,289,4.3,4.7,41,0.00,SCT,,0.00,WeatherDisplay:10.37,2013-04-20 19:22:00,
2013-04-20 15:27:00,57.9,34.3,30.23,NW,312,7.0,7.4,41,0.00,SCT,,0.00,WeatherDisplay:10.37,2013-04-20 19:27:00,
2013-04-20 15:32:00,57.7,32.3,30.24,WNW,289,3.6,3.6,38,0.00,SCT,,0.00,WeatherDisplay:10.37,2013-04-20 19:32:00,
2013-04-20 15:37:00,57.0,31.6,30.24,West,267,3.8,3.8,38,0.00,SCT,,0.00,WeatherDisplay:10.37,2013-04-20 19:37:00,
2013-04-20 15:42:00,57.2,32.4,30.23,WSW,245,8.4,9.2,39,0.00,SCT,,0.00,WeatherDisplay:10.37,2013-04-20 19:42:00,
2013-04-20 15:47:00,57.0,32.3,30.24,SW,222,5.8,5.8,39,0.00,SCT,,0.00,WeatherDisplay:10.37,2013-04-20 19:47:00,
2013-04-20 15:52:00,56.3,31.6,30.24,WNW,289,3.4,8.7,39,0.00,SCT,,0.00,WeatherDisplay:10.37,2013-04-20 19:52:00,
2013-04-20 15:57:00,56.5,31.8,30.24,WNW,289,5.9,6.0,39,0.00,SCT,,0.00,WeatherDisplay:10.37,2013-04-20 19:57:00,
2013-04-20 16:02:00,56.1,30.8,30.24,SW,222,2.0,6.9,38,0.00,SCT,,0.00,WeatherDisplay:10.37,2013-04-20 20:02:00,
2013-04-20 16:07:00,55.9,31.9,30.24,WNW,289,0.5,3.6,40,0.00,SCT,,0.00,WeatherDisplay:10.37,2013-04-20 20:07:00,
2013-04-20 16:12:00,56.1,32.1,30.24,WSW,245,3.0,3.6,40,0.00,SCT,,0.00,WeatherDisplay:10.37,2013-04-20 20:12:00,
2013-04-20 16:17:00,56.8,32.8,30.24,NW,312,9.2,9.2,40,0.00,SCT,,0.00,WeatherDisplay:10.37,2013-04-20 20:17:00,
2013-04-20 16:22:00,56.5,31.8,30.24,West,267,2.1,3.5,39,0.00,SCT,,0.00,WeatherDisplay:10.37,2013-04-20 20:22:00,
2013-04-20 16:27:00,56.8,32.1,30.24,NW,312,9.9,15.0,39,0.00,SCT,,0.00,WeatherDisplay:10.37,2013-04-20 20:27:00,
2013-04-20 16:32:00,56.1,30.8,30.24,North,357,0.0,0.0,38,0.00,SCT,,0.00,WeatherDisplay:10.37,2013-04-20 20:32:00,
2013-04-20 16:37:00,56.1,31.5,30.24,North,357,4.2,4.6,39,0.00,SCT,,0.00,WeatherDisplay:10.37,2013-04-20 20:37:00,
2013-04-20 16:42:00,56.5,32.4,30.24,WNW,289,3.1,3.5,40,0.00,SCT,,0.00,WeatherDisplay:10.37,2013-04-20 20:42:00,
2013-04-20 16:47:00,57.0,32.9,30.24,WSW,245,2.9,3.5,40,0.00,SCT,,0.00,WeatherDisplay:10.37,2013-04-20 20:47:00,
2013-04-20 16:52:00,57.9,33.1,30.24,WSW,245,6.1,6.9,39,0.00,SCT,,0.00,WeatherDisplay:10.37,2013-04-20 20:52:00,
2013-04-20 16:57:00,57.9,32.4,30.23,NNE,19,5.1,8.1,38,0.00,SCT,,0.00,WeatherDisplay:10.37,2013-04-20 20:57:00,
2013-04-20 17:02:00,57.4,32.0,30.24,NNW,335,16.1,16.1,38,0.00,SCT,,0.00,WeatherDisplay:10.37,2013-04-20 21:02:00,
2013-04-20 17:07:00,56.8,31.5,30.24,NW,312,3.4,3.5,38,0.00,SCT,,0.00,WeatherDisplay:10.37,2013-04-20 21:07:00,
2013-04-20 17:12:00,56.5,31.2,30.24,NNW,335,6.0,6.3,38,0.00,FEW,,0.00,WeatherDisplay:10.37,2013-04-20 21:12:00,
2013-04-20 17:17:00,56.3,30.3,30.24,WNW,289,7.8,8.1,37,0.00,FEW,,0.00,WeatherDisplay:10.37,2013-04-20 21:17:00,
2013-04-20 17:22:00,56.3,31.0,30.24,South,177,3.7,4.2,38,0.00,FEW,,0.00,WeatherDisplay:10.37,2013-04-20 21:22:00,
2013-04-20 17:27:00,56.3,30.3,30.24,NW,312,6.9,8.1,37,0.00,FEW,,0.00,WeatherDisplay:10.37,2013-04-20 21:27:00,
2013-04-20 17:32:00,56.3,31.0,30.24,WSW,245,2.5,9.2,38,0.00,FEW,,0.00,WeatherDisplay:10.37,2013-04-20 21:32:00,
2013-04-20 17:37:00,57.0,31.6,30.24,NNW,335,5.4,5.8,38,0.00,FEW,,0.00,WeatherDisplay:10.37,2013-04-20 21:37:00,
2013-04-20 17:42:00,56.8,31.5,30.24,NW,312,10.0,10.7,38,0.00,FEW,,0.00,WeatherDisplay:10.37,2013-04-20 21:42:00,
2013-04-20 17:47:00,56.5,30.5,30.24,NW,312,4.9,4.9,37,0.00,FEW,,0.00,WeatherDisplay:10.37,2013-04-20 21:47:00,
2013-04-20 17:52:00,56.3,31.0,30.24,NW,312,12.3,12.7,38,0.00,FEW,,0.00,WeatherDisplay:10.37,2013-04-20 21:52:00,
2013-04-20 17:57:00,55.9,30.0,30.24,WNW,289,6.7,6.9,37,0.00,FEW,,0.00,WeatherDisplay:10.37,2013-04-20 21:57:00,
2013-04-20 18:02:00,55.8,29.9,30.24,NW,312,4.1,5.8,37,0.00,FEW,,0.00,WeatherDisplay:10.37,2013-04-20 22:02:00,
2013-04-20 18:07:00,55.8,30.5,30.24,West,267,8.3,8.3,38,0.00,FEW,,0.00,WeatherDisplay:10.37,2013-04-20 22:07:00,
2013-04-20 18:12:00,55.6,31.0,30.24,WSW,245,2.8,4.0,39,0.00,CLR,,0.00,WeatherDisplay:10.37,2013-04-20 22:12:00,
2013-04-20 18:17:00,55.6,30.4,30.24,NNE,19,3.8,3.8,38,0.00,CLR,,0.00,WeatherDisplay:10.37,2013-04-20 22:17:00,
2013-04-20 18:22:00,55.6,30.4,30.24,NW,312,9.2,9.2,38,0.00,CLR,,0.00,WeatherDisplay:10.37,2013-04-20 22:22:00,
2013-04-20 18:27:00,55.2,30.0,30.24,NNW,335,5.8,5.8,38,0.00,CLR,,0.00,WeatherDisplay:10.37,2013-04-20 22:27:00,
2013-04-20 18:32:00,55.2,30.0,30.24,NW,312,3.7,5.8,38,0.00,CLR,,0.00,WeatherDisplay:10.37,2013-04-20 22:32:00,
2013-04-20 18:37:00,55.0,29.9,30.24,North,357,4.7,4.7,38,0.00,CLR,,0.00,WeatherDisplay:10.37,2013-04-20 22:37:00,
2013-04-20 18:42:00,55.2,30.0,30.24,NNW,335,4.4,4.6,38,0.00,CLR,,0.00,WeatherDisplay:10.37,2013-04-20 22:42:00,
2013-04-20 18:47:00,55.2,30.7,30.24,West,267,3.9,4.6,39,0.00,CLR,,0.00,WeatherDisplay:10.37,2013-04-20 22:47:00,
2013-04-20 18:52:00,55.2,30.0,30.24,NNW,335,1.4,2.3,38,0.00,CLR,,0.00,WeatherDisplay:10.37,2013-04-20 22:52:00,
2013-04-20 18:57:00,55.2,30.7,30.24,NW,312,4.4,4.6,39,0.00,CLR,,0.00,WeatherDisplay:10.37,2013-04-20 22:57:00,
2013-04-20 19:02:00,55.0,29.9,30.24,WNW,289,2.2,2.3,38,0.00,CLR,,0.00,WeatherDisplay:10.37,2013-04-20 23:02:00,
2013-04-20 19:07:00,55.0,29.9,30.24,WNW,289,2.8,3.5,38,0.00,CLR,,0.00,WeatherDisplay:10.37,2013-04-20 23:07:00,
2013-04-20 19:12:00,54.9,30.3,30.24,WSW,245,2.0,2.3,39,0.00,SCT,,0.00,WeatherDisplay:10.37,2013-04-20 23:12:00,
2013-04-20 19:17:00,54.7,28.9,30.24,NW,312,8.4,10.5,37,0.00,SCT,,0.00,WeatherDisplay:10.37,2013-04-20 23:17:00,
2013-04-20 19:22:00,54.1,28.4,30.24,NW,312,3.4,3.5,37,0.00,SCT,,0.00,WeatherDisplay:10.37,2013-04-20 23:22:00,
2013-04-20 19:27:00,54.0,28.9,30.24,WNW,289,2.5,3.5,38,0.00,SCT,,0.00,WeatherDisplay:10.37,2013-04-20 23:27:00,
2013-04-20 19:32:00,54.0,28.9,30.24,NW,312,4.7,4.7,38,0.00,SCT,,0.00,WeatherDisplay:10.37,2013-04-20 23:32:00,
2013-04-20 19:37:00,53.8,28.7,30.24,NW,312,2.9,3.5,38,0.00,SCT,,0.00,WeatherDisplay:10.37,2013-04-20 23:37:00,
2013-04-20 19:42:00,53.6,28.6,30.24,WNW,289,2.9,3.5,38,0.00,SCT,,0.00,WeatherDisplay:10.37,2013-04-20 23:42:00,
2013-04-20 19:47:00,53.4,28.4,30.24,NW,312,2.3,3.5,38,0.00,SCT,,0.00,WeatherDisplay:10.37,2013-04-20 23:47:00,
2013-04-20 19:52:00,53.2,28.3,30.24,West,267,1.3,1.6,38,0.00,SCT,,0.00,WeatherDisplay:10.37,2013-04-20 23:52:00,
2013-04-20 19:57:00,53.2,28.9,30.25,West,267,0.0,0.0,39,0.00,SCT,,0.00,WeatherDisplay:10.37,2013-04-20 23:57:00,
2013-04-20 20:02:00,52.9,28.6,30.25,West,267,2.2,2.3,39,0.00,SCT,,0.00,WeatherDisplay:10.37,2013-04-21 00:02:00,
2013-04-20 20:07:00,52.5,28.2,30.25,NW,312,0.0,0.0,39,0.00,SCT,,0.00,WeatherDisplay:10.37,2013-04-21 00:07:00,
2013-04-20 20:12:00,52.3,28.1,30.26,NW,312,3.7,3.7,39,0.00,BKN,,0.00,WeatherDisplay:10.37,2013-04-21 00:12:00,
2013-04-20 20:17:00,52.0,27.8,30.26,NW,312,1.6,1.6,39,0.00,BKN,,0.00,WeatherDisplay:10.37,2013-04-21 00:17:00,
2013-04-20 20:22:00,51.4,27.9,30.26,West,267,0.0,0.0,40,0.00,BKN,,0.00,WeatherDisplay:10.37,2013-04-21 00:22:00,
2013-04-20 20:27:00,51.1,27.6,30.26,NNW,335,0.4,1.1,40,0.00,BKN,,0.00,WeatherDisplay:10.37,2013-04-21 00:27:00,
2013-04-20 20:32:00,50.9,27.4,30.26,WNW,289,2.2,2.3,40,0.00,BKN,,0.00,WeatherDisplay:10.37,2013-04-21 00:32:00,
2013-04-20 20:37:00,50.5,27.1,30.26,WNW,289,0.0,0.0,40,0.00,BKN,,0.00,WeatherDisplay:10.37,2013-04-21 00:37:00,
2013-04-20 20:42:00,50.2,27.4,30.26,WNW,289,0.0,0.0,41,0.00,BKN,,0.00,WeatherDisplay:10.37,2013-04-21 00:42:00,
2013-04-20 20:47:00,49.8,27.0,30.26,NW,312,0.0,0.0,41,0.00,BKN,,0.00,WeatherDisplay:10.37,2013-04-21 00:47:00,
2013-04-20 20:52:00,49.5,26.7,30.27,NW,312,1.6,1.6,41,0.00,BKN,,0.00,WeatherDisplay:10.37,2013-04-21 00:52:00,
2013-04-20 20:57:00,49.1,26.4,30.27,NW,312,1.6,2.3,41,0.00,BKN,,0.00,WeatherDisplay:10.37,2013-04-21 00:57:00,
2013-04-20 21:02:00,49.1,26.4,30.27,NW,312,2.0,2.3,41,0.00,BKN,,0.00,WeatherDisplay:10.37,2013-04-21 01:02:00,
2013-04-20 21:07:00,48.9,26.2,30.27,NW,312,3.2,4.2,41,0.00,BKN,,0.00,WeatherDisplay:10.37,2013-04-21 01:07:00,
2013-04-20 21:12:00,48.7,26.6,30.28,North,357,4.3,4.6,42,0.00,SCT,,0.00,WeatherDisplay:10.37,2013-04-21 01:12:00,
2013-04-20 21:17:00,48.7,26.6,30.28,NW,312,1.6,1.6,42,0.00,SCT,,0.00,WeatherDisplay:10.37,2013-04-21 01:17:00,
2013-04-20 21:22:00,48.4,26.9,30.28,North,357,0.0,0.0,43,0.00,SCT,,0.00,WeatherDisplay:10.37,2013-04-21 01:22:00,
2013-04-20 21:27:00,48.0,27.1,30.29,NNW,335,0.0,0.0,44,0.00,SCT,,0.00,WeatherDisplay:10.37,2013-04-21 01:27:00,
2013-04-20 21:32:00,47.5,26.6,30.29,NNW,335,0.0,0.0,44,0.00,SCT,,0.00,WeatherDisplay:10.37,2013-04-21 01:32:00,
2013-04-20 21:37:00,46.9,26.7,30.29,North,357,0.6,1.1,45,0.00,SCT,,0.00,WeatherDisplay:10.37,2013-04-21 01:37:00,
2013-04-20 21:42:00,46.8,26.5,30.30,NNE,19,0.1,1.1,45,0.00,SCT,,0.00,WeatherDisplay:10.37,2013-04-21 01:42:00,
2013-04-20 21:47:00,46.6,26.9,30.30,North,357,0.0,0.0,46,0.00,SCT,,0.00,WeatherDisplay:10.37,2013-04-21 01:47:00,
2013-04-20 21:52:00,46.4,26.7,30.30,North,357,0.0,0.0,46,0.00,SCT,,0.00,WeatherDisplay:10.37,2013-04-21 01:52:00,
2013-04-20 21:57:00,46.2,26.6,30.30,North,357,0.0,0.0,46,0.00,SCT,,0.00,WeatherDisplay:10.37,2013-04-21 01:57:00,
2013-04-20 22:02:00,46.0,26.4,30.31,NNW,335,1.1,1.1,46,0.00,SCT,,0.00,WeatherDisplay:10.37,2013-04-21 02:02:00,
2013-04-20 22:07:00,46.0,26.4,30.31,North,357,1.4,2.3,46,0.00,SCT,,0.00,WeatherDisplay:10.37,2013-04-21 02:07:00,
2013-04-20 22:12:00,46.0,26.4,30.31,NE,42,2.0,2.3,46,0.00,SCT,,0.00,WeatherDisplay:10.37,2013-04-21 02:12:00,
2013-04-20 22:17:00,46.0,26.4,30.31,NNE,19,0.0,0.0,46,0.00,SCT,,0.00,WeatherDisplay:10.37,2013-04-21 02:17:00,
2013-04-20 22:22:00,45.7,26.1,30.31,NNW,335,0.0,0.0,46,0.00,SCT,,0.00,WeatherDisplay:10.37,2013-04-21 02:22:00,
2013-04-20 22:27:00,45.5,25.9,30.31,North,357,2.0,2.3,46,0.00,SCT,,0.00,WeatherDisplay:10.37,2013-04-21 02:27:00,
2013-04-20 22:32:00,45.5,25.9,30.31,North,357,2.7,2.7,46,0.00,SCT,,0.00,WeatherDisplay:10.37,2013-04-21 02:32:00,
2013-04-20 22:37:00,45.3,25.7,30.32,NNE,19,0.0,0.0,46,0.00,SCT,,0.00,WeatherDisplay:10.37,2013-04-21 02:37:00,
2013-04-20 22:42:00,45.1,26.1,30.32,NE,42,0.0,0.0,47,0.00,SCT,,0.00,WeatherDisplay:10.37,2013-04-21 02:42:00,
2013-04-20 22:47:00,45.0,25.9,30.32,NE,42,0.0,0.0,47,0.00,SCT,,0.00,WeatherDisplay:10.37,2013-04-21 02:47:00,
2013-04-20 22:52:00,44.2,25.3,30.32,NE,42,0.3,3.5,47,0.00,SCT,,0.00,WeatherDisplay:10.37,2013-04-21 02:52:00,
2013-04-20 22:57:00,44.2,25.3,30.32,North,357,0.1,1.1,47,0.00,SCT,,0.00,WeatherDisplay:10.37,2013-04-21 02:57:00,
2013-04-20 23:02:00,44.2,25.3,30.32,North,357,1.8,2.3,47,0.00,SCT,,0.00,WeatherDisplay:10.37,2013-04-21 03:02:00,
2013-04-20 23:07:00,44.1,25.6,30.33,North,357,0.0,0.0,48,0.00,SCT,,0.00,WeatherDisplay:10.37,2013-04-21 03:07:00,
2013-04-20 23:12:00,43.7,25.3,30.33,North,357,0.0,0.0,48,0.00,CLR,,0.00,WeatherDisplay:10.37,2013-04-21 03:12:00,
2013-04-20 23:17:00,43.7,25.3,30.33,NNE,19,0.0,0.0,48,0.00,CLR,,0.00,WeatherDisplay:10.37,2013-04-21 03:17:00,
2013-04-20 23:22:00,43.7,25.3,30.33,North,357,0.0,0.0,48,0.00,CLR,,0.00,WeatherDisplay:10.37,2013-04-21 03:22:00,
2013-04-20 23:27:00,43.7,25.3,30.33,NNE,19,0.0,0.0,48,0.00,CLR,,0.00,WeatherDisplay:10.37,2013-04-21 03:27:00,
2013-04-20 23:32:00,43.5,25.1,30.33,NNE,19,1.3,1.3,48,0.00,CLR,,0.00,WeatherDisplay:10.37,2013-04-21 03:32:00,
2013-04-20 23:37:00,43.5,25.1,30.33,NNE,19,1.1,2.3,48,0.00,CLR,,0.00,WeatherDisplay:10.37,2013-04-21 03:37:00,
2013-04-20 23:42:00,43.5,25.1,30.33,North,357,1.1,1.1,48,0.00,CLR,,0.00,WeatherDisplay:10.37,2013-04-21 03:42:00,
2013-04-20 23:47:00,43.5,25.6,30.33,NNE,19,0.1,0.0,49,0.00,CLR,,0.00,WeatherDisplay:10.37,2013-04-21 03:47:00,
2013-04-20 23:52:00,43.3,25.4,30.33,NNE,19,0.1,1.1,49,0.00,CLR,,0.00,WeatherDisplay:10.37,2013-04-21 03:52:00,
2013-04-20 23:57:00,43.0,25.1,30.33,NNE,19,0.0,0.0,49,0.00,CLR,,0.00,WeatherDisplay:10.37,2013-04-21 03:57:00,